Terminal Aerodrome Forecast
Issued by NWS

Home | Current Version | Previous Version | Graphics & Text | Print | Product List | Glossary On
Versions: 1 2 3 4 5 6 7 8 9 10 11 12 13 14
000
FTUS45 KGGW 261500 AAA
TAFSDY
TAF AMD
KSDY 261512Z 2615/2712 VRB04KT P6SM BKN008 BKN015 OVC022
     FM270600 16008KT P6SM BKN011 OVC070
      AMD LTD TO CLD VIS AND WIND=

USA.gov is the U.S. government's official web portal to all federal, state and local government web resources and services.